Flight Track Log - Related Links

Times and Time Zones

All times are in EDT time to prevent confusion due to time zone crossing. See the N232CF flight status page for this flight to view local times or setup timezone preferences in your user account.

Time Position Orientation Groundspeed Altitude Reporting Facility
EDT Latitude Longitude Course Direction KTS MPH feet Rate Location/Type
Fri 09:08:35 PM 30.4758 -81.6803 109° East 169 194 600  Level Jacksonville Center
Fri 09:09:48 PM 30.4519 -81.5986 109° East 236 272 2,900 1,356 Climbing Jacksonville Center
Fri 09:11:01 PM 30.4322 -81.5072 104° East 264 304 3,900 1,550 Climbing Jacksonville Center
Fri 09:12:19 PM 30.3647 -81.4361 138° Southeast 298 343 6,800 2,522 Climbing Jacksonville Center
Fri 09:13:19 PM 30.3014 -81.3864 146° Southeast 293 337 9,700 2,550 Climbing Jacksonville Center
Fri 09:14:19 PM 30.2236 -81.3397 153° Southeast 293 337 11,900 2,350 Climbing Jacksonville Center
Fri 09:15:19 PM 30.1294 -81.3194 169° South 320 368 14,400 2,050 Climbing Jacksonville Center
Fri 09:16:19 PM 30.0269 -81.2925 167° South 353 406 16,000 793 Climbing Jacksonville Center
Fri 09:17:20 PM 29.9139 -81.2656 168° South 390 449 16,000  Level Jacksonville Center
Fri 09:18:19 PM 29.7944 -81.2364 168° South 428 493 16,000  Level Jacksonville Center
Fri 09:19:19 PM 29.6981 -81.2117 167° South 445 512 16,000  Level Jacksonville Center
Fri 09:20:19 PM 29.5661 -81.1806 168° South 445 512 16,000 -100 Level Jacksonville Center
Fri 09:21:19 PM 29.4319 -81.1472 168° South 451 519 15,800 -397 Descending Jacksonville Center
Fri 09:22:20 PM 29.3106 -81.1208 169° South 451 519 15,200 -397 Descending Jacksonville Center
Fri 09:23:20 PM 29.1872 -81.1064 174° South 451 519 15,000 -101 Descending Jacksonville Center
Fri 09:24:19 PM 29.0661 -81.0942 175° South 445 512 15,000 -252 Level Jacksonville Center
Fri 09:25:19 PM 28.9428 -81.0869 177° South 445 512 14,500 -744 Descending Jacksonville Center
Fri 09:26:20 PM 28.8236 -81.0750 175° South 440 506 13,500 -1,037 Descending Jacksonville Center
Fri 09:26:40 PM 28.7833 -81.0667 170° South 427 491 13,100 -1,425 Descending Orlando TRACON
Fri 09:27:40 PM 28.6833 -81.0667 180° South 346 398 11,600 -1,526 Descending Orlando TRACON
Fri 09:28:34 PM 28.6000 -81.0333 161° South 310 357 10,200 -1,632 Descending Orlando TRACON
Fri 09:29:34 PM 28.5167 -81.0167 170° South 287 330 8,500 -1,500 Descending Orlando TRACON
Fri 09:30:34 PM 28.4500 -81.0000 168° South 280 322 7,200 -1,100 Descending Orlando TRACON
Fri 09:31:34 PM 28.3667 -80.9833 170° South 273 314 6,300 -942 Descending Orlando TRACON
Fri 09:32:35 PM 28.3000 -80.9667 168° South 266 306 5,300 -893 Descending Orlando TRACON
Fri 09:33:35 PM 28.2167 -80.9500 170° South 260 299 4,500 -1,200 Descending Orlando TRACON
Fri 09:34:35 PM 28.1667 -80.9167 150° Southeast 236 272 2,900 -1,200 Descending Orlando TRACON
Fri 09:35:35 PM 28.1333 -80.8667 127° Southeast 222 255 2,100 -400 Descending Orlando TRACON
Fri 09:36:35 PM 28.1000 -80.8167 127° Southeast 195 224 2,100 -250 Level Orlando TRACON
Fri 09:37:35 PM 28.1000 -80.7500 90° East 153 176 1,600 -550 Descending Orlando TRACON
Fri 09:38:35 PM 28.1000 -80.7167 90° East 121 139 1,000 -600 Descending Orlando TRACON
Fri 09:39:35 PM 28.1000 -80.6833 90° East 122 140 400 -600 Descending Orlando TRACON
Fri 09:41:00 PM 28.1028 -80.6453 126° Southeast  Level Estimated
Fri 09:48:00 PM 28.1028 -80.6453 126° Southeast  Level Estimated
Fri 09:49:00 PM 28.1028 -80.6453 126° Southeast  Level Estimated
Fri 09:50:00 PM 28.1028 -80.6453 126° Southeast  Level Estimated

Login

Don't have an account? Register now (free) for customized features, flight alerts, and more!